sensor_id;sensor_type;location;lat;lon;timestamp;P1;durP1;ratioP1;P2;durP2;ratioP2
14584;SDS011;7379;51.506;11.876;2024-02-21T00:01:50;6.95;;;3.70;;
14584;SDS011;7379;51.506;11.876;2024-02-21T00:04:17;8.75;;;4.00;;
14584;SDS011;7379;51.506;11.876;2024-02-21T00:06:44;9.02;;;3.72;;
14584;SDS011;7379;51.506;11.876;2024-02-21T00:09:12;9.65;;;4.30;;
14584;SDS011;7379;51.506;11.876;2024-02-21T00:11:39;7.88;;;3.85;;
14584;SDS011;7379;51.506;11.876;2024-02-21T00:14:06;7.90;;;3.92;;
14584;SDS011;7379;51.506;11.876;2024-02-21T00:16:32;7.63;;;3.60;;
14584;SDS011;7379;51.506;11.876;2024-02-21T00:18:59;7.25;;;3.42;;
14584;SDS011;7379;51.506;11.876;2024-02-21T00:21:26;6.85;;;3.63;;
14584;SDS011;7379;51.506;11.876;2024-02-21T00:23:53;8.57;;;3.55;;
14584;SDS011;7379;51.506;11.876;2024-02-21T00:26:21;8.27;;;3.85;;
14584;SDS011;7379;51.506;11.876;2024-02-21T00:28:48;6.45;;;3.65;;
14584;SDS011;7379;51.506;11.876;2024-02-21T00:31:14;7.63;;;4.28;;
14584;SDS011;7379;51.506;11.876;2024-02-21T00:33:41;6.10;;;3.47;;
14584;SDS011;7379;51.506;11.876;2024-02-21T00:36:08;9.90;;;3.97;;
14584;SDS011;7379;51.506;11.876;2024-02-21T00:38:35;7.65;;;3.90;;
14584;SDS011;7379;51.506;11.876;2024-02-21T00:41:01;6.38;;;3.58;;
14584;SDS011;7379;51.506;11.876;2024-02-21T00:43:30;7.43;;;3.80;;
14584;SDS011;7379;51.506;11.876;2024-02-21T00:45:56;8.52;;;3.95;;
14584;SDS011;7379;51.506;11.876;2024-02-21T00:48:23;7.63;;;3.70;;
14584;SDS011;7379;51.506;11.876;2024-02-21T00:50:50;9.52;;;3.50;;
14584;SDS011;7379;51.506;11.876;2024-02-21T00:53:17;9.80;;;4.05;;
14584;SDS011;7379;51.506;11.876;2024-02-21T00:55:44;9.68;;;3.90;;
14584;SDS011;7379;51.506;11.876;2024-02-21T00:58:10;9.65;;;3.78;;
14584;SDS011;7379;51.506;11.876;2024-02-21T01:00:38;11.25;;;4.25;;
14584;SDS011;7379;51.506;11.876;2024-02-21T01:03:05;6.32;;;3.72;;
14584;SDS011;7379;51.506;11.876;2024-02-21T01:05:32;6.13;;;3.53;;
14584;SDS011;7379;51.506;11.876;2024-02-21T01:07:59;8.68;;;4.07;;
14584;SDS011;7379;51.506;11.876;2024-02-21T01:10:25;6.97;;;3.60;;
14584;SDS011;7379;51.506;11.876;2024-02-21T01:12:52;8.18;;;3.90;;
14584;SDS011;7379;51.506;11.876;2024-02-21T01:15:19;6.47;;;3.92;;
14584;SDS011;7379;51.506;11.876;2024-02-21T01:17:47;8.50;;;3.58;;
14584;SDS011;7379;51.506;11.876;2024-02-21T01:20:15;7.45;;;3.90;;
14584;SDS011;7379;51.506;11.876;2024-02-21T01:22:42;6.82;;;3.97;;
14584;SDS011;7379;51.506;11.876;2024-02-21T01:25:09;9.65;;;4.22;;
14584;SDS011;7379;51.506;11.876;2024-02-21T01:27:36;6.63;;;3.75;;
14584;SDS011;7379;51.506;11.876;2024-02-21T01:30:03;7.80;;;3.60;;
14584;SDS011;7379;51.506;11.876;2024-02-21T01:32:30;9.60;;;4.05;;
14584;SDS011;7379;51.506;11.876;2024-02-21T01:34:58;9.52;;;3.97;;
14584;SDS011;7379;51.506;11.876;2024-02-21T01:37:25;7.15;;;3.70;;
14584;SDS011;7379;51.506;11.876;2024-02-21T01:39:52;7.55;;;3.65;;
14584;SDS011;7379;51.506;11.876;2024-02-21T01:42:19;7.32;;;4.30;;
14584;SDS011;7379;51.506;11.876;2024-02-21T01:44:46;9.27;;;3.95;;
14584;SDS011;7379;51.506;11.876;2024-02-21T01:47:12;7.05;;;3.75;;
14584;SDS011;7379;51.506;11.876;2024-02-21T01:49:40;7.40;;;3.53;;
14584;SDS011;7379;51.506;11.876;2024-02-21T01:52:08;7.57;;;3.70;;
14584;SDS011;7379;51.506;11.876;2024-02-21T01:54:44;8.60;;;3.70;;
14584;SDS011;7379;51.506;11.876;2024-02-21T01:57:13;6.35;;;3.40;;
14584;SDS011;7379;51.506;11.876;2024-02-21T01:59:40;8.55;;;3.80;;
14584;SDS011;7379;51.506;11.876;2024-02-21T02:02:07;9.85;;;3.53;;
14584;SDS011;7379;51.506;11.876;2024-02-21T02:04:34;5.47;;;3.72;;
14584;SDS011;7379;51.506;11.876;2024-02-21T02:07:02;8.25;;;3.92;;
14584;SDS011;7379;51.506;11.876;2024-02-21T02:09:33;7.90;;;4.30;;
14584;SDS011;7379;51.506;11.876;2024-02-21T02:12:00;9.82;;;4.00;;
14584;SDS011;7379;51.506;11.876;2024-02-21T02:14:28;6.57;;;3.72;;
14584;SDS011;7379;51.506;11.876;2024-02-21T02:16:55;7.13;;;3.97;;
14584;SDS011;7379;51.506;11.876;2024-02-21T02:19:21;10.43;;;4.13;;
14584;SDS011;7379;51.506;11.876;2024-02-21T02:21:49;5.47;;;3.80;;
14584;SDS011;7379;51.506;11.876;2024-02-21T02:24:23;7.82;;;3.60;;
14584;SDS011;7379;51.506;11.876;2024-02-21T02:26:51;8.75;;;4.32;;
14584;SDS011;7379;51.506;11.876;2024-02-21T02:29:17;6.45;;;3.38;;
14584;SDS011;7379;51.506;11.876;2024-02-21T02:31:44;7.50;;;3.88;;
14584;SDS011;7379;51.506;11.876;2024-02-21T02:34:11;8.43;;;3.58;;
14584;SDS011;7379;51.506;11.876;2024-02-21T02:36:37;7.38;;;3.60;;
14584;SDS011;7379;51.506;11.876;2024-02-21T02:39:04;7.22;;;3.95;;
14584;SDS011;7379;51.506;11.876;2024-02-21T02:41:34;7.45;;;3.60;;
14584;SDS011;7379;51.506;11.876;2024-02-21T02:44:01;6.65;;;3.80;;
14584;SDS011;7379;51.506;11.876;2024-02-21T02:46:27;6.15;;;3.40;;
14584;SDS011;7379;51.506;11.876;2024-02-21T02:48:54;6.82;;;3.65;;
14584;SDS011;7379;51.506;11.876;2024-02-21T02:51:21;7.57;;;3.40;;
14584;SDS011;7379;51.506;11.876;2024-02-21T02:53:47;8.65;;;3.85;;
14584;SDS011;7379;51.506;11.876;2024-02-21T02:56:14;7.97;;;3.90;;
14584;SDS011;7379;51.506;11.876;2024-02-21T02:58:43;7.07;;;3.50;;
14584;SDS011;7379;51.506;11.876;2024-02-21T03:01:10;8.55;;;3.75;;
14584;SDS011;7379;51.506;11.876;2024-02-21T03:03:37;6.45;;;3.50;;
14584;SDS011;7379;51.506;11.876;2024-02-21T03:06:03;8.63;;;4.10;;
14584;SDS011;7379;51.506;11.876;2024-02-21T03:08:30;7.60;;;3.80;;
14584;SDS011;7379;51.506;11.876;2024-02-21T03:10:57;5.72;;;3.58;;
14584;SDS011;7379;51.506;11.876;2024-02-21T03:13:24;8.57;;;3.58;;
14584;SDS011;7379;51.506;11.876;2024-02-21T03:15:52;6.38;;;3.33;;
14584;SDS011;7379;51.506;11.876;2024-02-21T03:18:19;9.20;;;3.75;;
14584;SDS011;7379;51.506;11.876;2024-02-21T03:20:46;6.07;;;3.55;;
14584;SDS011;7379;51.506;11.876;2024-02-21T03:23:13;5.80;;;3.40;;
14584;SDS011;7379;51.506;11.876;2024-02-21T03:25:40;8.13;;;3.83;;
14584;SDS011;7379;51.506;11.876;2024-02-21T03:28:07;11.10;;;4.25;;
14584;SDS011;7379;51.506;11.876;2024-02-21T03:30:33;8.68;;;3.60;;
14584;SDS011;7379;51.506;11.876;2024-02-21T03:33:02;7.78;;;3.58;;
14584;SDS011;7379;51.506;11.876;2024-02-21T03:35:29;7.10;;;3.88;;
14584;SDS011;7379;51.506;11.876;2024-02-21T03:37:56;5.25;;;3.22;;
14584;SDS011;7379;51.506;11.876;2024-02-21T03:40:22;7.03;;;3.40;;
14584;SDS011;7379;51.506;11.876;2024-02-21T03:42:49;9.63;;;3.67;;
14584;SDS011;7379;51.506;11.876;2024-02-21T03:45:16;7.85;;;3.75;;
14584;SDS011;7379;51.506;11.876;2024-02-21T03:47:42;7.30;;;3.75;;
14584;SDS011;7379;51.506;11.876;2024-02-21T03:50:10;7.88;;;3.85;;
14584;SDS011;7379;51.506;11.876;2024-02-21T03:52:37;7.28;;;3.65;;
14584;SDS011;7379;51.506;11.876;2024-02-21T03:55:05;6.70;;;3.63;;
14584;SDS011;7379;51.506;11.876;2024-02-21T03:57:33;9.25;;;3.70;;
14584;SDS011;7379;51.506;11.876;2024-02-21T04:00:00;7.75;;;3.60;;
14584;SDS011;7379;51.506;11.876;2024-02-21T04:02:28;9.57;;;3.65;;
14584;SDS011;7379;51.506;11.876;2024-02-21T04:04:55;9.13;;;3.95;;
14584;SDS011;7379;51.506;11.876;2024-02-21T04:07:23;7.90;;;3.65;;
14584;SDS011;7379;51.506;11.876;2024-02-21T04:09:50;6.93;;;3.65;;
14584;SDS011;7379;51.506;11.876;2024-02-21T04:12:16;9.07;;;4.15;;
14584;SDS011;7379;51.506;11.876;2024-02-21T04:14:43;7.25;;;4.00;;
14584;SDS011;7379;51.506;11.876;2024-02-21T04:17:10;7.25;;;3.65;;
14584;SDS011;7379;51.506;11.876;2024-02-21T04:19:36;6.85;;;3.75;;
14584;SDS011;7379;51.506;11.876;2024-02-21T04:22:03;6.75;;;3.65;;
14584;SDS011;7379;51.506;11.876;2024-02-21T04:24:31;7.75;;;3.92;;
14584;SDS011;7379;51.506;11.876;2024-02-21T04:26:58;6.30;;;3.65;;
14584;SDS011;7379;51.506;11.876;2024-02-21T04:29:25;8.27;;;3.90;;
14584;SDS011;7379;51.506;11.876;2024-02-21T04:31:52;8.70;;;3.80;;
14584;SDS011;7379;51.506;11.876;2024-02-21T04:34:19;6.22;;;4.03;;
14584;SDS011;7379;51.506;11.876;2024-02-21T04:36:46;9.13;;;4.30;;
14584;SDS011;7379;51.506;11.876;2024-02-21T04:39:13;8.38;;;3.92;;
14584;SDS011;7379;51.506;11.876;2024-02-21T04:41:41;7.15;;;3.97;;
14584;SDS011;7379;51.506;11.876;2024-02-21T04:44:07;8.70;;;3.83;;
14584;SDS011;7379;51.506;11.876;2024-02-21T04:46:34;5.80;;;3.50;;
14584;SDS011;7379;51.506;11.876;2024-02-21T04:49:01;8.68;;;4.55;;
14584;SDS011;7379;51.506;11.876;2024-02-21T04:51:27;5.90;;;3.45;;
14584;SDS011;7379;51.506;11.876;2024-02-21T04:53:54;7.20;;;4.20;;
14584;SDS011;7379;51.506;11.876;2024-02-21T04:56:21;9.82;;;4.47;;
14584;SDS011;7379;51.506;11.876;2024-02-21T04:58:49;6.60;;;4.00;;
14584;SDS011;7379;51.506;11.876;2024-02-21T05:01:16;8.60;;;3.95;;
14584;SDS011;7379;51.506;11.876;2024-02-21T05:03:43;8.60;;;3.88;;
14584;SDS011;7379;51.506;11.876;2024-02-21T05:06:11;7.85;;;4.00;;
14584;SDS011;7379;51.506;11.876;2024-02-21T05:08:39;8.10;;;4.03;;
14584;SDS011;7379;51.506;11.876;2024-02-21T05:11:06;6.80;;;4.30;;
14584;SDS011;7379;51.506;11.876;2024-02-21T05:13:33;8.68;;;4.20;;
14584;SDS011;7379;51.506;11.876;2024-02-21T05:16:01;6.55;;;4.22;;
14584;SDS011;7379;51.506;11.876;2024-02-21T05:18:28;6.38;;;4.15;;
14584;SDS011;7379;51.506;11.876;2024-02-21T05:20:55;8.02;;;4.07;;
14584;SDS011;7379;51.506;11.876;2024-02-21T05:23:22;5.57;;;3.95;;
14584;SDS011;7379;51.506;11.876;2024-02-21T05:25:48;8.40;;;4.45;;
14584;SDS011;7379;51.506;11.876;2024-02-21T05:28:15;7.40;;;4.55;;
14584;SDS011;7379;51.506;11.876;2024-02-21T05:30:42;10.45;;;4.72;;
14584;SDS011;7379;51.506;11.876;2024-02-21T05:33:10;6.20;;;4.05;;
14584;SDS011;7379;51.506;11.876;2024-02-21T05:35:37;8.68;;;4.32;;
14584;SDS011;7379;51.506;11.876;2024-02-21T05:38:04;9.18;;;4.38;;
14584;SDS011;7379;51.506;11.876;2024-02-21T05:40:36;7.95;;;4.68;;
14584;SDS011;7379;51.506;11.876;2024-02-21T05:43:03;9.90;;;5.10;;
14584;SDS011;7379;51.506;11.876;2024-02-21T05:45:29;9.55;;;5.00;;
14584;SDS011;7379;51.506;11.876;2024-02-21T05:47:56;10.30;;;4.82;;
14584;SDS011;7379;51.506;11.876;2024-02-21T05:50:24;10.27;;;4.90;;
14584;SDS011;7379;51.506;11.876;2024-02-21T05:52:52;9.18;;;4.80;;
14584;SDS011;7379;51.506;11.876;2024-02-21T05:55:19;11.02;;;5.22;;
14584;SDS011;7379;51.506;11.876;2024-02-21T05:57:45;8.68;;;4.53;;
14584;SDS011;7379;51.506;11.876;2024-02-21T06:00:12;9.85;;;5.22;;
14584;SDS011;7379;51.506;11.876;2024-02-21T06:02:40;11.32;;;4.90;;
14584;SDS011;7379;51.506;11.876;2024-02-21T06:05:07;8.45;;;5.30;;
14584;SDS011;7379;51.506;11.876;2024-02-21T06:07:35;9.52;;;5.35;;
14584;SDS011;7379;51.506;11.876;2024-02-21T06:10:02;8.27;;;5.10;;
14584;SDS011;7379;51.506;11.876;2024-02-21T06:12:29;10.73;;;5.47;;
14584;SDS011;7379;51.506;11.876;2024-02-21T06:14:56;11.73;;;5.45;;
14584;SDS011;7379;51.506;11.876;2024-02-21T06:17:23;14.95;;;5.70;;
14584;SDS011;7379;51.506;11.876;2024-02-21T06:19:49;9.50;;;5.45;;
14584;SDS011;7379;51.506;11.876;2024-02-21T06:22:16;9.18;;;5.10;;
14584;SDS011;7379;51.506;11.876;2024-02-21T06:24:44;9.55;;;5.35;;
14584;SDS011;7379;51.506;11.876;2024-02-21T06:27:11;9.18;;;5.53;;
14584;SDS011;7379;51.506;11.876;2024-02-21T06:29:40;8.68;;;5.30;;
14584;SDS011;7379;51.506;11.876;2024-02-21T06:32:06;10.50;;;5.43;;
14584;SDS011;7379;51.506;11.876;2024-02-21T06:34:33;8.13;;;5.07;;
14584;SDS011;7379;51.506;11.876;2024-02-21T06:37:00;8.50;;;5.88;;
14584;SDS011;7379;51.506;11.876;2024-02-21T06:39:27;11.80;;;5.78;;
14584;SDS011;7379;51.506;11.876;2024-02-21T06:41:55;13.50;;;5.97;;
14584;SDS011;7379;51.506;11.876;2024-02-21T06:44:22;9.93;;;5.40;;
14584;SDS011;7379;51.506;11.876;2024-02-21T06:46:49;8.95;;;5.30;;
14584;SDS011;7379;51.506;11.876;2024-02-21T06:49:15;8.63;;;5.50;;
14584;SDS011;7379;51.506;11.876;2024-02-21T06:51:42;10.55;;;5.18;;
14584;SDS011;7379;51.506;11.876;2024-02-21T06:54:09;10.25;;;5.35;;
14584;SDS011;7379;51.506;11.876;2024-02-21T06:56:36;8.75;;;5.20;;
14584;SDS011;7379;51.506;11.876;2024-02-21T06:59:05;10.57;;;5.57;;
14584;SDS011;7379;51.506;11.876;2024-02-21T07:01:31;11.70;;;5.80;;
14584;SDS011;7379;51.506;11.876;2024-02-21T07:03:58;7.13;;;5.00;;
14584;SDS011;7379;51.506;11.876;2024-02-21T07:06:25;9.10;;;5.38;;
14584;SDS011;7379;51.506;11.876;2024-02-21T07:08:52;10.73;;;5.40;;
14584;SDS011;7379;51.506;11.876;2024-02-21T07:11:18;9.18;;;5.55;;
14584;SDS011;7379;51.506;11.876;2024-02-21T07:13:45;9.00;;;5.25;;
14584;SDS011;7379;51.506;11.876;2024-02-21T07:16:13;11.73;;;5.50;;
14584;SDS011;7379;51.506;11.876;2024-02-21T07:18:40;12.27;;;5.18;;
14584;SDS011;7379;51.506;11.876;2024-02-21T07:21:06;9.23;;;5.20;;
14584;SDS011;7379;51.506;11.876;2024-02-21T07:23:33;10.40;;;5.55;;
14584;SDS011;7379;51.506;11.876;2024-02-21T07:26:00;10.38;;;5.30;;
14584;SDS011;7379;51.506;11.876;2024-02-21T07:28:26;9.32;;;5.50;;
14584;SDS011;7379;51.506;11.876;2024-02-21T07:30:53;11.57;;;5.70;;
14584;SDS011;7379;51.506;11.876;2024-02-21T07:33:21;9.73;;;5.30;;
14584;SDS011;7379;51.506;11.876;2024-02-21T07:35:48;9.02;;;5.13;;
14584;SDS011;7379;51.506;11.876;2024-02-21T07:38:15;9.82;;;5.22;;
14584;SDS011;7379;51.506;11.876;2024-02-21T07:40:43;9.18;;;5.18;;
14584;SDS011;7379;51.506;11.876;2024-02-21T07:43:10;9.07;;;5.30;;
14584;SDS011;7379;51.506;11.876;2024-02-21T07:45:37;10.23;;;5.35;;
14584;SDS011;7379;51.506;11.876;2024-02-21T07:48:04;11.60;;;5.57;;
14584;SDS011;7379;51.506;11.876;2024-02-21T07:50:33;9.52;;;5.07;;
14584;SDS011;7379;51.506;11.876;2024-02-21T07:52:59;10.73;;;5.55;;
14584;SDS011;7379;51.506;11.876;2024-02-21T07:55:26;8.38;;;5.05;;
14584;SDS011;7379;51.506;11.876;2024-02-21T07:57:53;8.18;;;5.15;;
14584;SDS011;7379;51.506;11.876;2024-02-21T08:00:20;10.90;;;5.38;;
14584;SDS011;7379;51.506;11.876;2024-02-21T08:02:47;9.05;;;5.10;;
14584;SDS011;7379;51.506;11.876;2024-02-21T08:05:14;6.97;;;4.88;;
14584;SDS011;7379;51.506;11.876;2024-02-21T08:07:42;8.68;;;5.05;;
14584;SDS011;7379;51.506;11.876;2024-02-21T08:10:09;8.27;;;4.93;;
14584;SDS011;7379;51.506;11.876;2024-02-21T08:12:36;10.43;;;5.35;;
14584;SDS011;7379;51.506;11.876;2024-02-21T08:15:03;8.48;;;4.93;;
14584;SDS011;7379;51.506;11.876;2024-02-21T08:17:33;9.23;;;5.07;;
14584;SDS011;7379;51.506;11.876;2024-02-21T08:19:59;8.25;;;5.03;;
14584;SDS011;7379;51.506;11.876;2024-02-21T08:22:26;9.52;;;5.13;;
14584;SDS011;7379;51.506;11.876;2024-02-21T08:24:54;10.27;;;4.97;;
14584;SDS011;7379;51.506;11.876;2024-02-21T08:27:21;9.90;;;5.18;;
14584;SDS011;7379;51.506;11.876;2024-02-21T08:29:48;9.93;;;4.85;;
14584;SDS011;7379;51.506;11.876;2024-02-21T08:32:15;8.38;;;5.28;;
14584;SDS011;7379;51.506;11.876;2024-02-21T08:34:41;10.70;;;5.28;;
14584;SDS011;7379;51.506;11.876;2024-02-21T08:37:08;7.22;;;4.85;;
14584;SDS011;7379;51.506;11.876;2024-02-21T08:39:35;9.00;;;4.85;;
14584;SDS011;7379;51.506;11.876;2024-02-21T08:42:04;9.85;;;5.18;;
14584;SDS011;7379;51.506;11.876;2024-02-21T08:44:31;9.80;;;5.20;;
14584;SDS011;7379;51.506;11.876;2024-02-21T08:46:57;8.73;;;5.35;;
14584;SDS011;7379;51.506;11.876;2024-02-21T08:49:24;8.60;;;5.32;;
14584;SDS011;7379;51.506;11.876;2024-02-21T08:51:53;11.50;;;5.35;;
14584;SDS011;7379;51.506;11.876;2024-02-21T08:54:20;10.40;;;5.15;;
14584;SDS011;7379;51.506;11.876;2024-02-21T08:56:47;8.70;;;4.57;;
14584;SDS011;7379;51.506;11.876;2024-02-21T08:59:15;10.77;;;5.35;;
14584;SDS011;7379;51.506;11.876;2024-02-21T09:01:41;10.95;;;5.35;;
14584;SDS011;7379;51.506;11.876;2024-02-21T09:04:08;9.07;;;5.05;;
14584;SDS011;7379;51.506;11.876;2024-02-21T09:06:35;9.68;;;5.22;;
14584;SDS011;7379;51.506;11.876;2024-02-21T09:09:04;8.13;;;5.07;;
14584;SDS011;7379;51.506;11.876;2024-02-21T09:11:33;9.10;;;5.00;;
14584;SDS011;7379;51.506;11.876;2024-02-21T09:13:59;7.82;;;4.30;;
14584;SDS011;7379;51.506;11.876;2024-02-21T09:16:30;7.50;;;4.90;;
14584;SDS011;7379;51.506;11.876;2024-02-21T09:18:57;9.98;;;5.10;;
14584;SDS011;7379;51.506;11.876;2024-02-21T09:21:24;9.98;;;5.60;;
14584;SDS011;7379;51.506;11.876;2024-02-21T09:23:50;8.23;;;4.85;;
14584;SDS011;7379;51.506;11.876;2024-02-21T09:26:17;7.88;;;4.70;;
14584;SDS011;7379;51.506;11.876;2024-02-21T09:28:44;7.75;;;5.20;;
14584;SDS011;7379;51.506;11.876;2024-02-21T09:31:11;9.13;;;4.97;;
14584;SDS011;7379;51.506;11.876;2024-02-21T09:33:39;12.43;;;5.45;;
14584;SDS011;7379;51.506;11.876;2024-02-21T09:36:06;9.88;;;4.95;;
14584;SDS011;7379;51.506;11.876;2024-02-21T09:38:33;9.27;;;4.82;;
14584;SDS011;7379;51.506;11.876;2024-02-21T09:41:00;10.13;;;5.05;;
14584;SDS011;7379;51.506;11.876;2024-02-21T09:43:40;8.48;;;4.40;;
14584;SDS011;7379;51.506;11.876;2024-02-21T09:46:08;8.43;;;4.65;;
14584;SDS011;7379;51.506;11.876;2024-02-21T09:48:44;9.88;;;5.00;;
14584;SDS011;7379;51.506;11.876;2024-02-21T09:51:22;7.10;;;4.43;;
14584;SDS011;7379;51.506;11.876;2024-02-21T09:53:51;8.10;;;4.70;;
14584;SDS011;7379;51.506;11.876;2024-02-21T09:56:19;9.20;;;4.63;;
14584;SDS011;7379;51.506;11.876;2024-02-21T09:58:46;8.57;;;4.80;;
14584;SDS011;7379;51.506;11.876;2024-02-21T10:01:13;9.55;;;4.50;;
14584;SDS011;7379;51.506;11.876;2024-02-21T10:03:42;8.20;;;5.03;;
14584;SDS011;7379;51.506;11.876;2024-02-21T10:06:09;7.35;;;4.80;;
14584;SDS011;7379;51.506;11.876;2024-02-21T10:08:36;7.97;;;4.63;;
14584;SDS011;7379;51.506;11.876;2024-02-21T10:11:03;9.82;;;5.13;;
14584;SDS011;7379;51.506;11.876;2024-02-21T10:13:30;8.50;;;4.75;;
14584;SDS011;7379;51.506;11.876;2024-02-21T10:16:00;7.53;;;4.30;;
14584;SDS011;7379;51.506;11.876;2024-02-21T10:18:31;9.25;;;4.82;;
14584;SDS011;7379;51.506;11.876;2024-02-21T10:21:03;8.52;;;4.38;;
14584;SDS011;7379;51.506;11.876;2024-02-21T10:23:43;8.18;;;4.95;;
14584;SDS011;7379;51.506;11.876;2024-02-21T10:26:11;8.65;;;4.63;;
14584;SDS011;7379;51.506;11.876;2024-02-21T10:28:38;10.05;;;4.72;;
14584;SDS011;7379;51.506;11.876;2024-02-21T10:31:07;7.13;;;4.55;;
14584;SDS011;7379;51.506;11.876;2024-02-21T10:33:34;12.23;;;5.07;;
14584;SDS011;7379;51.506;11.876;2024-02-21T10:36:09;8.75;;;4.68;;
14584;SDS011;7379;51.506;11.876;2024-02-21T10:38:37;8.23;;;4.60;;
14584;SDS011;7379;51.506;11.876;2024-02-21T10:41:04;7.85;;;4.75;;
14584;SDS011;7379;51.506;11.876;2024-02-21T10:43:33;6.43;;;4.25;;
14584;SDS011;7379;51.506;11.876;2024-02-21T10:46:05;7.20;;;4.05;;
14584;SDS011;7379;51.506;11.876;2024-02-21T10:48:35;7.50;;;4.60;;
14584;SDS011;7379;51.506;11.876;2024-02-21T10:51:12;8.75;;;4.80;;
14584;SDS011;7379;51.506;11.876;2024-02-21T10:53:44;9.80;;;4.70;;
14584;SDS011;7379;51.506;11.876;2024-02-21T10:56:21;7.22;;;4.72;;
14584;SDS011;7379;51.506;11.876;2024-02-21T10:58:51;11.73;;;4.43;;
14584;SDS011;7379;51.506;11.876;2024-02-21T11:01:19;8.65;;;4.30;;
14584;SDS011;7379;51.506;11.876;2024-02-21T11:03:47;8.93;;;4.18;;
14584;SDS011;7379;51.506;11.876;2024-02-21T11:06:17;6.07;;;4.18;;
14584;SDS011;7379;51.506;11.876;2024-02-21T11:08:46;8.18;;;4.32;;
14584;SDS011;7379;51.506;11.876;2024-02-21T11:11:14;6.38;;;4.05;;
14584;SDS011;7379;51.506;11.876;2024-02-21T11:13:43;6.60;;;3.78;;
14584;SDS011;7379;51.506;11.876;2024-02-21T11:16:11;7.55;;;4.20;;
14584;SDS011;7379;51.506;11.876;2024-02-21T11:18:47;7.47;;;3.95;;
14584;SDS011;7379;51.506;11.876;2024-02-21T11:21:14;4.43;;;3.30;;
14584;SDS011;7379;51.506;11.876;2024-02-21T11:23:42;10.02;;;4.40;;
14584;SDS011;7379;51.506;11.876;2024-02-21T11:26:09;9.73;;;3.47;;
14584;SDS011;7379;51.506;11.876;2024-02-21T11:28:36;8.23;;;4.30;;
14584;SDS011;7379;51.506;11.876;2024-02-21T11:31:06;7.72;;;3.55;;
14584;SDS011;7379;51.506;11.876;2024-02-21T11:33:34;6.80;;;3.60;;
14584;SDS011;7379;51.506;11.876;2024-02-21T11:36:01;7.03;;;3.80;;
14584;SDS011;7379;51.506;11.876;2024-02-21T11:38:29;4.25;;;3.20;;
14584;SDS011;7379;51.506;11.876;2024-02-21T11:40:57;8.15;;;3.53;;
14584;SDS011;7379;51.506;11.876;2024-02-21T11:43:24;5.50;;;3.65;;
14584;SDS011;7379;51.506;11.876;2024-02-21T11:45:57;6.10;;;3.50;;
14584;SDS011;7379;51.506;11.876;2024-02-21T11:48:25;5.95;;;3.47;;
14584;SDS011;7379;51.506;11.876;2024-02-21T11:50:54;6.45;;;3.33;;
14584;SDS011;7379;51.506;11.876;2024-02-21T11:53:21;6.43;;;3.20;;
14584;SDS011;7379;51.506;11.876;2024-02-21T11:55:48;6.10;;;3.37;;
14584;SDS011;7379;51.506;11.876;2024-02-21T11:58:17;7.85;;;3.33;;
14584;SDS011;7379;51.506;11.876;2024-02-21T12:00:43;7.32;;;3.78;;
14584;SDS011;7379;51.506;11.876;2024-02-21T12:03:10;6.88;;;3.70;;
14584;SDS011;7379;51.506;11.876;2024-02-21T12:05:37;6.72;;;3.78;;
14584;SDS011;7379;51.506;11.876;2024-02-21T12:08:03;6.40;;;3.67;;
14584;SDS011;7379;51.506;11.876;2024-02-21T12:10:31;6.60;;;3.33;;
14584;SDS011;7379;51.506;11.876;2024-02-21T12:13:05;8.07;;;3.58;;
14584;SDS011;7379;51.506;11.876;2024-02-21T12:15:34;7.13;;;3.42;;
14584;SDS011;7379;51.506;11.876;2024-02-21T12:18:01;6.05;;;3.80;;
14584;SDS011;7379;51.506;11.876;2024-02-21T12:20:27;5.97;;;3.53;;
14584;SDS011;7379;51.506;11.876;2024-02-21T12:22:55;6.28;;;3.40;;
14584;SDS011;7379;51.506;11.876;2024-02-21T12:25:23;7.32;;;3.58;;
14584;SDS011;7379;51.506;11.876;2024-02-21T12:27:51;7.10;;;3.92;;
14584;SDS011;7379;51.506;11.876;2024-02-21T12:30:18;7.68;;;3.55;;
14584;SDS011;7379;51.506;11.876;2024-02-21T12:32:47;5.93;;;3.47;;
14584;SDS011;7379;51.506;11.876;2024-02-21T12:35:14;5.03;;;3.20;;
14584;SDS011;7379;51.506;11.876;2024-02-21T12:37:42;4.35;;;3.50;;
14584;SDS011;7379;51.506;11.876;2024-02-21T12:40:10;6.65;;;3.45;;
14584;SDS011;7379;51.506;11.876;2024-02-21T12:42:38;5.25;;;3.58;;
14584;SDS011;7379;51.506;11.876;2024-02-21T12:45:05;6.38;;;4.13;;
14584;SDS011;7379;51.506;11.876;2024-02-21T12:47:32;6.72;;;3.60;;
14584;SDS011;7379;51.506;11.876;2024-02-21T12:50:01;5.80;;;3.75;;
14584;SDS011;7379;51.506;11.876;2024-02-21T12:52:31;6.97;;;4.00;;
14584;SDS011;7379;51.506;11.876;2024-02-21T12:54:58;7.22;;;3.97;;
14584;SDS011;7379;51.506;11.876;2024-02-21T12:57:25;6.90;;;4.05;;
14584;SDS011;7379;51.506;11.876;2024-02-21T12:59:51;7.63;;;4.22;;
14584;SDS011;7379;51.506;11.876;2024-02-21T13:02:18;5.80;;;3.80;;
14584;SDS011;7379;51.506;11.876;2024-02-21T13:04:46;8.00;;;4.40;;
14584;SDS011;7379;51.506;11.876;2024-02-21T13:07:14;6.03;;;3.92;;
14584;SDS011;7379;51.506;11.876;2024-02-21T13:09:40;7.95;;;4.03;;
14584;SDS011;7379;51.506;11.876;2024-02-21T13:12:07;7.80;;;3.88;;
14584;SDS011;7379;51.506;11.876;2024-02-21T13:14:34;8.80;;;4.63;;
14584;SDS011;7379;51.506;11.876;2024-02-21T13:17:03;6.00;;;4.00;;
14584;SDS011;7379;51.506;11.876;2024-02-21T13:19:30;7.10;;;3.92;;
14584;SDS011;7379;51.506;11.876;2024-02-21T13:21:57;7.22;;;4.38;;
14584;SDS011;7379;51.506;11.876;2024-02-21T13:24:25;7.90;;;4.78;;
14584;SDS011;7379;51.506;11.876;2024-02-21T13:26:52;8.50;;;4.28;;
14584;SDS011;7379;51.506;11.876;2024-02-21T13:29:18;6.72;;;4.10;;
14584;SDS011;7379;51.506;11.876;2024-02-21T13:31:46;8.93;;;4.40;;
14584;SDS011;7379;51.506;11.876;2024-02-21T13:34:13;10.45;;;4.47;;
14584;SDS011;7379;51.506;11.876;2024-02-21T13:36:39;6.68;;;4.30;;
14584;SDS011;7379;51.506;11.876;2024-02-21T13:39:06;6.03;;;4.07;;
14584;SDS011;7379;51.506;11.876;2024-02-21T13:41:39;7.63;;;4.43;;
14584;SDS011;7379;51.506;11.876;2024-02-21T13:44:05;7.80;;;4.50;;
14584;SDS011;7379;51.506;11.876;2024-02-21T13:46:32;7.60;;;4.60;;
14584;SDS011;7379;51.506;11.876;2024-02-21T13:49:02;9.38;;;4.25;;
14584;SDS011;7379;51.506;11.876;2024-02-21T13:51:31;7.47;;;4.25;;
14584;SDS011;7379;51.506;11.876;2024-02-21T13:53:58;7.78;;;4.35;;
14584;SDS011;7379;51.506;11.876;2024-02-21T13:56:25;8.30;;;4.20;;
14584;SDS011;7379;51.506;11.876;2024-02-21T13:58:53;6.72;;;4.20;;
14584;SDS011;7379;51.506;11.876;2024-02-21T14:01:20;6.43;;;4.05;;
14584;SDS011;7379;51.506;11.876;2024-02-21T14:03:46;8.02;;;4.60;;
14584;SDS011;7379;51.506;11.876;2024-02-21T14:06:13;9.32;;;4.65;;
14584;SDS011;7379;51.506;11.876;2024-02-21T14:08:40;9.80;;;4.57;;
14584;SDS011;7379;51.506;11.876;2024-02-21T14:11:06;6.32;;;4.43;;
14584;SDS011;7379;51.506;11.876;2024-02-21T14:13:33;8.27;;;4.70;;
14584;SDS011;7379;51.506;11.876;2024-02-21T14:16:01;11.70;;;4.78;;
14584;SDS011;7379;51.506;11.876;2024-02-21T14:18:28;8.90;;;4.70;;
14584;SDS011;7379;51.506;11.876;2024-02-21T14:20:55;5.70;;;4.30;;
14584;SDS011;7379;51.506;11.876;2024-02-21T14:23:22;6.85;;;4.13;;
14584;SDS011;7379;51.506;11.876;2024-02-21T14:25:48;8.40;;;4.60;;
14584;SDS011;7379;51.506;11.876;2024-02-21T14:28:15;6.70;;;4.35;;
14584;SDS011;7379;51.506;11.876;2024-02-21T14:30:43;8.52;;;4.63;;
14584;SDS011;7379;51.506;11.876;2024-02-21T14:33:11;9.85;;;4.68;;
14584;SDS011;7379;51.506;11.876;2024-02-21T14:35:37;6.82;;;4.25;;
14584;SDS011;7379;51.506;11.876;2024-02-21T14:38:04;8.52;;;4.50;;
14584;SDS011;7379;51.506;11.876;2024-02-21T14:40:31;7.65;;;4.55;;
14584;SDS011;7379;51.506;11.876;2024-02-21T14:42:58;7.40;;;4.28;;
14584;SDS011;7379;51.506;11.876;2024-02-21T14:45:25;6.50;;;3.90;;
14584;SDS011;7379;51.506;11.876;2024-02-21T14:47:52;8.15;;;4.45;;